sensor_id;sensor_type;location;lat;lon;timestamp;P1;durP1;ratioP1;P2;durP2;ratioP2
9150;SDS011;4610;50.006;7.490;2023-02-21T00:01:24;11.87;;;5.50;;
9150;SDS011;4610;50.006;7.490;2023-02-21T00:04:08;10.37;;;5.10;;
9150;SDS011;4610;50.006;7.490;2023-02-21T00:06:52;11.50;;;5.30;;
9150;SDS011;4610;50.006;7.490;2023-02-21T00:09:37;9.60;;;5.43;;
9150;SDS011;4610;50.006;7.490;2023-02-21T00:12:22;8.90;;;4.77;;
9150;SDS011;4610;50.006;7.490;2023-02-21T00:15:06;13.00;;;6.20;;
9150;SDS011;4610;50.006;7.490;2023-02-21T00:17:52;11.00;;;5.40;;
9150;SDS011;4610;50.006;7.490;2023-02-21T00:20:37;15.20;;;6.47;;
9150;SDS011;4610;50.006;7.490;2023-02-21T00:23:22;17.93;;;6.27;;
9150;SDS011;4610;50.006;7.490;2023-02-21T00:26:06;10.57;;;5.77;;
9150;SDS011;4610;50.006;7.490;2023-02-21T00:28:50;11.40;;;5.97;;
9150;SDS011;4610;50.006;7.490;2023-02-21T00:31:34;11.27;;;6.17;;
9150;SDS011;4610;50.006;7.490;2023-02-21T00:34:20;10.07;;;6.37;;
9150;SDS011;4610;50.006;7.490;2023-02-21T00:37:04;13.70;;;5.77;;
9150;SDS011;4610;50.006;7.490;2023-02-21T00:39:48;11.00;;;6.20;;
9150;SDS011;4610;50.006;7.490;2023-02-21T00:42:33;15.07;;;6.37;;
9150;SDS011;4610;50.006;7.490;2023-02-21T00:45:17;10.53;;;6.17;;
9150;SDS011;4610;50.006;7.490;2023-02-21T00:48:01;13.77;;;6.83;;
9150;SDS011;4610;50.006;7.490;2023-02-21T00:50:46;8.53;;;5.67;;
9150;SDS011;4610;50.006;7.490;2023-02-21T00:53:30;15.63;;;7.97;;
9150;SDS011;4610;50.006;7.490;2023-02-21T00:56:14;10.73;;;6.13;;
9150;SDS011;4610;50.006;7.490;2023-02-21T00:58:58;8.13;;;5.17;;
9150;SDS011;4610;50.006;7.490;2023-02-21T01:01:42;12.97;;;5.37;;
9150;SDS011;4610;50.006;7.490;2023-02-21T01:04:26;11.60;;;5.77;;
9150;SDS011;4610;50.006;7.490;2023-02-21T01:07:12;14.23;;;6.33;;
9150;SDS011;4610;50.006;7.490;2023-02-21T01:09:56;11.20;;;6.23;;
9150;SDS011;4610;50.006;7.490;2023-02-21T01:12:40;11.37;;;6.47;;
9150;SDS011;4610;50.006;7.490;2023-02-21T01:15:25;14.53;;;6.63;;
9150;SDS011;4610;50.006;7.490;2023-02-21T01:18:09;20.53;;;8.30;;
9150;SDS011;4610;50.006;7.490;2023-02-21T01:20:53;11.33;;;7.00;;
9150;SDS011;4610;50.006;7.490;2023-02-21T01:23:38;14.80;;;6.87;;
9150;SDS011;4610;50.006;7.490;2023-02-21T01:26:22;13.20;;;7.27;;
9150;SDS011;4610;50.006;7.490;2023-02-21T01:29:07;15.63;;;7.20;;
9150;SDS011;4610;50.006;7.490;2023-02-21T01:31:51;15.27;;;7.00;;
9150;SDS011;4610;50.006;7.490;2023-02-21T01:34:36;18.17;;;8.10;;
9150;SDS011;4610;50.006;7.490;2023-02-21T01:37:20;18.97;;;9.47;;
9150;SDS011;4610;50.006;7.490;2023-02-21T01:40:06;13.57;;;6.27;;
9150;SDS011;4610;50.006;7.490;2023-02-21T01:42:51;13.93;;;6.73;;
9150;SDS011;4610;50.006;7.490;2023-02-21T01:45:40;10.80;;;6.67;;
9150;SDS011;4610;50.006;7.490;2023-02-21T01:48:28;12.50;;;6.50;;
9150;SDS011;4610;50.006;7.490;2023-02-21T01:51:15;12.20;;;6.73;;
9150;SDS011;4610;50.006;7.490;2023-02-21T01:54:01;10.53;;;6.40;;
9150;SDS011;4610;50.006;7.490;2023-02-21T01:56:49;12.10;;;6.57;;
9150;SDS011;4610;50.006;7.490;2023-02-21T01:59:33;11.27;;;6.53;;
9150;SDS011;4610;50.006;7.490;2023-02-21T02:02:18;18.07;;;7.97;;
9150;SDS011;4610;50.006;7.490;2023-02-21T02:05:08;10.80;;;7.00;;
9150;SDS011;4610;50.006;7.490;2023-02-21T02:07:55;12.03;;;6.73;;
9150;SDS011;4610;50.006;7.490;2023-02-21T02:10:39;11.63;;;7.00;;
9150;SDS011;4610;50.006;7.490;2023-02-21T02:13:39;14.73;;;7.80;;
9150;SDS011;4610;50.006;7.490;2023-02-21T02:16:18;12.80;;;7.87;;
9150;SDS011;4610;50.006;7.490;2023-02-21T02:18:58;12.13;;;7.63;;
9150;SDS011;4610;50.006;7.490;2023-02-21T02:21:43;12.47;;;6.70;;
9150;SDS011;4610;50.006;7.490;2023-02-21T02:24:31;15.43;;;7.40;;
9150;SDS011;4610;50.006;7.490;2023-02-21T02:27:21;14.70;;;7.67;;
9150;SDS011;4610;50.006;7.490;2023-02-21T02:30:20;13.67;;;7.40;;
9150;SDS011;4610;50.006;7.490;2023-02-21T02:33:19;15.07;;;8.87;;
9150;SDS011;4610;50.006;7.490;2023-02-21T02:36:16;14.33;;;7.17;;
9150;SDS011;4610;50.006;7.490;2023-02-21T02:38:49;11.10;;;7.00;;
9150;SDS011;4610;50.006;7.490;2023-02-21T02:41:23;16.40;;;8.13;;
9150;SDS011;4610;50.006;7.490;2023-02-21T02:43:58;13.43;;;7.47;;
9150;SDS011;4610;50.006;7.490;2023-02-21T02:46:30;18.00;;;8.07;;
9150;SDS011;4610;50.006;7.490;2023-02-21T02:49:01;15.17;;;7.37;;
9150;SDS011;4610;50.006;7.490;2023-02-21T02:51:33;13.27;;;7.67;;
9150;SDS011;4610;50.006;7.490;2023-02-21T02:54:00;17.17;;;8.70;;
9150;SDS011;4610;50.006;7.490;2023-02-21T02:56:27;13.13;;;8.07;;
9150;SDS011;4610;50.006;7.490;2023-02-21T02:58:55;17.70;;;7.60;;
9150;SDS011;4610;50.006;7.490;2023-02-21T03:01:32;15.07;;;7.60;;
9150;SDS011;4610;50.006;7.490;2023-02-21T03:04:31;13.53;;;7.47;;
9150;SDS011;4610;50.006;7.490;2023-02-21T03:07:19;11.70;;;6.40;;
9150;SDS011;4610;50.006;7.490;2023-02-21T03:09:53;12.77;;;6.77;;
9150;SDS011;4610;50.006;7.490;2023-02-21T03:12:30;15.33;;;7.63;;
9150;SDS011;4610;50.006;7.490;2023-02-21T03:15:02;11.73;;;7.20;;
9150;SDS011;4610;50.006;7.490;2023-02-21T03:17:35;16.47;;;7.47;;
9150;SDS011;4610;50.006;7.490;2023-02-21T03:20:06;12.17;;;7.43;;
9150;SDS011;4610;50.006;7.490;2023-02-21T03:22:36;13.10;;;7.17;;
9150;SDS011;4610;50.006;7.490;2023-02-21T03:25:04;14.53;;;7.17;;
9150;SDS011;4610;50.006;7.490;2023-02-21T03:27:32;15.77;;;8.77;;
9150;SDS011;4610;50.006;7.490;2023-02-21T03:30:03;16.77;;;8.83;;
9150;SDS011;4610;50.006;7.490;2023-02-21T03:32:34;17.37;;;8.67;;
9150;SDS011;4610;50.006;7.490;2023-02-21T03:35:03;12.93;;;7.37;;
9150;SDS011;4610;50.006;7.490;2023-02-21T03:37:31;16.57;;;7.67;;
9150;SDS011;4610;50.006;7.490;2023-02-21T03:40:02;16.07;;;7.90;;
9150;SDS011;4610;50.006;7.490;2023-02-21T03:42:30;13.70;;;7.40;;
9150;SDS011;4610;50.006;7.490;2023-02-21T03:44:56;16.13;;;7.53;;
9150;SDS011;4610;50.006;7.490;2023-02-21T03:47:23;14.93;;;7.60;;
9150;SDS011;4610;50.006;7.490;2023-02-21T03:49:50;17.30;;;8.23;;
9150;SDS011;4610;50.006;7.490;2023-02-21T03:52:17;14.33;;;8.13;;
9150;SDS011;4610;50.006;7.490;2023-02-21T03:54:43;12.33;;;6.80;;
9150;SDS011;4610;50.006;7.490;2023-02-21T03:57:12;11.90;;;6.87;;
9150;SDS011;4610;50.006;7.490;2023-02-21T03:59:38;13.23;;;6.80;;
9150;SDS011;4610;50.006;7.490;2023-02-21T04:02:05;12.37;;;6.93;;
9150;SDS011;4610;50.006;7.490;2023-02-21T04:04:32;9.90;;;6.30;;
9150;SDS011;4610;50.006;7.490;2023-02-21T04:06:59;13.33;;;7.63;;
9150;SDS011;4610;50.006;7.490;2023-02-21T04:09:26;13.67;;;7.90;;
9150;SDS011;4610;50.006;7.490;2023-02-21T04:11:53;14.97;;;7.37;;
9150;SDS011;4610;50.006;7.490;2023-02-21T04:14:21;19.13;;;7.83;;
9150;SDS011;4610;50.006;7.490;2023-02-21T04:16:48;17.43;;;8.33;;
9150;SDS011;4610;50.006;7.490;2023-02-21T04:19:15;15.10;;;8.07;;
9150;SDS011;4610;50.006;7.490;2023-02-21T04:21:42;12.87;;;7.23;;
9150;SDS011;4610;50.006;7.490;2023-02-21T04:24:09;13.43;;;6.90;;
9150;SDS011;4610;50.006;7.490;2023-02-21T04:26:35;14.97;;;7.37;;
9150;SDS011;4610;50.006;7.490;2023-02-21T04:29:02;17.37;;;7.33;;
9150;SDS011;4610;50.006;7.490;2023-02-21T04:31:31;16.10;;;7.73;;
9150;SDS011;4610;50.006;7.490;2023-02-21T04:33:58;14.50;;;8.10;;
9150;SDS011;4610;50.006;7.490;2023-02-21T04:36:25;14.57;;;7.93;;
9150;SDS011;4610;50.006;7.490;2023-02-21T04:38:54;16.27;;;7.93;;
9150;SDS011;4610;50.006;7.490;2023-02-21T04:41:21;14.40;;;7.90;;
9150;SDS011;4610;50.006;7.490;2023-02-21T04:43:47;14.80;;;8.33;;
9150;SDS011;4610;50.006;7.490;2023-02-21T04:46:15;17.73;;;7.77;;
9150;SDS011;4610;50.006;7.490;2023-02-21T04:48:45;14.70;;;7.20;;
9150;SDS011;4610;50.006;7.490;2023-02-21T04:51:14;14.90;;;7.67;;
9150;SDS011;4610;50.006;7.490;2023-02-21T04:53:42;14.83;;;7.80;;
9150;SDS011;4610;50.006;7.490;2023-02-21T04:56:09;17.93;;;8.77;;
9150;SDS011;4610;50.006;7.490;2023-02-21T04:58:36;14.27;;;7.30;;
9150;SDS011;4610;50.006;7.490;2023-02-21T05:01:03;15.83;;;7.83;;
9150;SDS011;4610;50.006;7.490;2023-02-21T05:03:30;13.40;;;7.70;;
9150;SDS011;4610;50.006;7.490;2023-02-21T05:05:58;13.87;;;8.17;;
9150;SDS011;4610;50.006;7.490;2023-02-21T05:08:25;13.93;;;7.10;;
9150;SDS011;4610;50.006;7.490;2023-02-21T05:10:52;13.33;;;7.77;;
9150;SDS011;4610;50.006;7.490;2023-02-21T05:13:19;10.80;;;6.90;;
9150;SDS011;4610;50.006;7.490;2023-02-21T05:15:46;15.47;;;7.40;;
9150;SDS011;4610;50.006;7.490;2023-02-21T05:18:13;12.40;;;7.27;;
9150;SDS011;4610;50.006;7.490;2023-02-21T05:20:46;18.30;;;8.57;;
9150;SDS011;4610;50.006;7.490;2023-02-21T05:23:15;14.37;;;7.47;;
9150;SDS011;4610;50.006;7.490;2023-02-21T05:25:43;13.03;;;7.03;;
9150;SDS011;4610;50.006;7.490;2023-02-21T05:28:10;11.37;;;6.80;;
9150;SDS011;4610;50.006;7.490;2023-02-21T05:30:37;14.03;;;7.47;;
9150;SDS011;4610;50.006;7.490;2023-02-21T05:33:03;13.20;;;7.27;;
9150;SDS011;4610;50.006;7.490;2023-02-21T05:35:30;11.30;;;7.00;;
9150;SDS011;4610;50.006;7.490;2023-02-21T05:37:57;17.90;;;7.53;;
9150;SDS011;4610;50.006;7.490;2023-02-21T05:40:25;12.23;;;7.23;;
9150;SDS011;4610;50.006;7.490;2023-02-21T05:42:51;13.23;;;7.40;;
9150;SDS011;4610;50.006;7.490;2023-02-21T05:45:18;15.47;;;8.13;;
9150;SDS011;4610;50.006;7.490;2023-02-21T05:47:45;13.40;;;8.70;;
9150;SDS011;4610;50.006;7.490;2023-02-21T05:50:12;16.40;;;8.40;;
9150;SDS011;4610;50.006;7.490;2023-02-21T05:52:40;17.23;;;9.23;;
9150;SDS011;4610;50.006;7.490;2023-02-21T05:55:07;13.63;;;8.33;;
9150;SDS011;4610;50.006;7.490;2023-02-21T05:57:37;15.13;;;8.50;;
9150;SDS011;4610;50.006;7.490;2023-02-21T06:00:05;16.00;;;8.17;;
9150;SDS011;4610;50.006;7.490;2023-02-21T06:02:32;13.00;;;7.97;;
9150;SDS011;4610;50.006;7.490;2023-02-21T06:04:59;14.83;;;7.57;;
9150;SDS011;4610;50.006;7.490;2023-02-21T06:07:26;14.87;;;8.43;;
9150;SDS011;4610;50.006;7.490;2023-02-21T06:09:52;14.07;;;8.10;;
9150;SDS011;4610;50.006;7.490;2023-02-21T06:12:19;14.53;;;8.27;;
9150;SDS011;4610;50.006;7.490;2023-02-21T06:14:47;17.47;;;10.03;;
9150;SDS011;4610;50.006;7.490;2023-02-21T06:17:14;13.43;;;8.10;;
9150;SDS011;4610;50.006;7.490;2023-02-21T06:19:41;14.73;;;7.40;;
9150;SDS011;4610;50.006;7.490;2023-02-21T06:22:08;18.30;;;8.53;;
9150;SDS011;4610;50.006;7.490;2023-02-21T06:24:35;15.93;;;7.93;;
9150;SDS011;4610;50.006;7.490;2023-02-21T06:27:01;15.00;;;8.50;;
9150;SDS011;4610;50.006;7.490;2023-02-21T06:29:28;13.80;;;7.63;;
9150;SDS011;4610;50.006;7.490;2023-02-21T06:31:57;17.73;;;7.73;;
9150;SDS011;4610;50.006;7.490;2023-02-21T06:34:25;15.10;;;7.90;;
9150;SDS011;4610;50.006;7.490;2023-02-21T06:36:53;15.30;;;7.17;;
9150;SDS011;4610;50.006;7.490;2023-02-21T06:39:20;14.77;;;7.87;;
9150;SDS011;4610;50.006;7.490;2023-02-21T06:41:47;14.20;;;6.90;;
9150;SDS011;4610;50.006;7.490;2023-02-21T06:44:14;14.33;;;8.23;;
9150;SDS011;4610;50.006;7.490;2023-02-21T06:46:41;16.03;;;8.17;;
9150;SDS011;4610;50.006;7.490;2023-02-21T06:49:10;17.13;;;8.10;;
9150;SDS011;4610;50.006;7.490;2023-02-21T06:51:37;14.13;;;7.53;;
9150;SDS011;4610;50.006;7.490;2023-02-21T06:54:07;13.63;;;8.20;;
9150;SDS011;4610;50.006;7.490;2023-02-21T06:56:34;14.10;;;7.83;;
9150;SDS011;4610;50.006;7.490;2023-02-21T06:59:01;14.90;;;7.87;;
9150;SDS011;4610;50.006;7.490;2023-02-21T07:01:29;11.00;;;7.17;;
9150;SDS011;4610;50.006;7.490;2023-02-21T07:03:57;11.33;;;7.00;;
9150;SDS011;4610;50.006;7.490;2023-02-21T07:06:25;17.43;;;8.47;;
9150;SDS011;4610;50.006;7.490;2023-02-21T07:08:52;15.80;;;8.43;;
9150;SDS011;4610;50.006;7.490;2023-02-21T07:11:19;13.27;;;8.33;;
9150;SDS011;4610;50.006;7.490;2023-02-21T07:13:46;13.87;;;7.47;;
9150;SDS011;4610;50.006;7.490;2023-02-21T07:16:14;12.30;;;6.97;;
9150;SDS011;4610;50.006;7.490;2023-02-21T07:18:42;15.43;;;8.20;;
9150;SDS011;4610;50.006;7.490;2023-02-21T07:21:08;12.37;;;7.57;;
9150;SDS011;4610;50.006;7.490;2023-02-21T07:23:37;15.53;;;8.53;;
9150;SDS011;4610;50.006;7.490;2023-02-21T07:26:03;16.50;;;9.50;;
9150;SDS011;4610;50.006;7.490;2023-02-21T07:28:30;20.93;;;10.00;;
9150;SDS011;4610;50.006;7.490;2023-02-21T07:30:57;14.20;;;8.63;;
9150;SDS011;4610;50.006;7.490;2023-02-21T07:33:24;15.43;;;9.17;;
9150;SDS011;4610;50.006;7.490;2023-02-21T07:35:51;16.53;;;9.37;;
9150;SDS011;4610;50.006;7.490;2023-02-21T07:38:21;14.63;;;8.33;;
9150;SDS011;4610;50.006;7.490;2023-02-21T07:40:50;17.93;;;9.60;;
9150;SDS011;4610;50.006;7.490;2023-02-21T07:43:19;16.63;;;9.37;;
9150;SDS011;4610;50.006;7.490;2023-02-21T07:45:45;13.80;;;9.17;;
9150;SDS011;4610;50.006;7.490;2023-02-21T07:48:12;16.23;;;10.00;;
9150;SDS011;4610;50.006;7.490;2023-02-21T07:50:40;16.33;;;9.80;;
9150;SDS011;4610;50.006;7.490;2023-02-21T07:53:07;15.60;;;9.67;;
9150;SDS011;4610;50.006;7.490;2023-02-21T07:55:35;16.83;;;10.37;;
9150;SDS011;4610;50.006;7.490;2023-02-21T07:58:04;16.63;;;9.63;;
9150;SDS011;4610;50.006;7.490;2023-02-21T08:00:31;16.10;;;9.07;;
9150;SDS011;4610;50.006;7.490;2023-02-21T08:02:58;35.83;;;18.67;;
9150;SDS011;4610;50.006;7.490;2023-02-21T08:05:25;18.70;;;10.37;;
9150;SDS011;4610;50.006;7.490;2023-02-21T08:07:52;13.83;;;9.10;;
9150;SDS011;4610;50.006;7.490;2023-02-21T08:10:20;15.37;;;9.03;;
9150;SDS011;4610;50.006;7.490;2023-02-21T08:12:48;15.73;;;8.63;;
9150;SDS011;4610;50.006;7.490;2023-02-21T08:15:16;12.93;;;7.77;;
9150;SDS011;4610;50.006;7.490;2023-02-21T08:17:43;14.33;;;8.77;;
9150;SDS011;4610;50.006;7.490;2023-02-21T08:20:13;12.67;;;8.60;;
9150;SDS011;4610;50.006;7.490;2023-02-21T08:22:40;13.37;;;9.50;;
9150;SDS011;4610;50.006;7.490;2023-02-21T08:25:08;12.83;;;8.30;;
9150;SDS011;4610;50.006;7.490;2023-02-21T08:27:37;14.33;;;8.63;;
9150;SDS011;4610;50.006;7.490;2023-02-21T08:30:04;13.93;;;8.17;;
9150;SDS011;4610;50.006;7.490;2023-02-21T08:32:34;13.10;;;8.53;;
9150;SDS011;4610;50.006;7.490;2023-02-21T08:35:01;12.97;;;7.77;;
9150;SDS011;4610;50.006;7.490;2023-02-21T08:37:30;13.00;;;8.50;;
9150;SDS011;4610;50.006;7.490;2023-02-21T08:40:00;11.77;;;8.20;;
9150;SDS011;4610;50.006;7.490;2023-02-21T08:42:28;15.40;;;8.00;;
9150;SDS011;4610;50.006;7.490;2023-02-21T08:44:54;14.60;;;8.73;;
9150;SDS011;4610;50.006;7.490;2023-02-21T08:47:21;16.67;;;8.60;;
9150;SDS011;4610;50.006;7.490;2023-02-21T08:49:50;13.77;;;9.53;;
9150;SDS011;4610;50.006;7.490;2023-02-21T08:52:18;14.33;;;8.53;;
9150;SDS011;4610;50.006;7.490;2023-02-21T08:54:46;14.87;;;8.53;;
9150;SDS011;4610;50.006;7.490;2023-02-21T08:57:13;14.20;;;9.00;;
9150;SDS011;4610;50.006;7.490;2023-02-21T08:59:40;13.63;;;7.93;;
9150;SDS011;4610;50.006;7.490;2023-02-21T09:02:09;15.60;;;9.33;;
9150;SDS011;4610;50.006;7.490;2023-02-21T09:04:41;14.97;;;8.27;;
9150;SDS011;4610;50.006;7.490;2023-02-21T09:07:09;11.17;;;8.10;;
9150;SDS011;4610;50.006;7.490;2023-02-21T09:09:37;16.43;;;8.70;;
9150;SDS011;4610;50.006;7.490;2023-02-21T09:12:05;13.70;;;8.13;;
9150;SDS011;4610;50.006;7.490;2023-02-21T09:14:33;13.37;;;8.10;;
9150;SDS011;4610;50.006;7.490;2023-02-21T09:17:01;16.13;;;8.23;;
9150;SDS011;4610;50.006;7.490;2023-02-21T09:19:29;12.73;;;8.63;;
9150;SDS011;4610;50.006;7.490;2023-02-21T09:21:55;11.90;;;7.87;;
9150;SDS011;4610;50.006;7.490;2023-02-21T09:24:24;11.70;;;7.73;;
9150;SDS011;4610;50.006;7.490;2023-02-21T09:26:51;12.63;;;8.13;;
9150;SDS011;4610;50.006;7.490;2023-02-21T09:29:19;15.77;;;8.53;;
9150;SDS011;4610;50.006;7.490;2023-02-21T09:31:48;12.23;;;8.00;;
9150;SDS011;4610;50.006;7.490;2023-02-21T09:34:15;16.10;;;7.97;;
9150;SDS011;4610;50.006;7.490;2023-02-21T09:36:44;12.67;;;7.50;;
9150;SDS011;4610;50.006;7.490;2023-02-21T09:39:12;12.70;;;8.10;;
9150;SDS011;4610;50.006;7.490;2023-02-21T09:41:41;12.40;;;7.67;;
9150;SDS011;4610;50.006;7.490;2023-02-21T09:44:11;10.37;;;7.47;;
9150;SDS011;4610;50.006;7.490;2023-02-21T09:46:43;11.63;;;7.57;;
9150;SDS011;4610;50.006;7.490;2023-02-21T09:49:14;12.03;;;7.87;;
9150;SDS011;4610;50.006;7.490;2023-02-21T09:51:47;9.87;;;6.70;;
9150;SDS011;4610;50.006;7.490;2023-02-21T09:54:16;12.83;;;7.87;;
9150;SDS011;4610;50.006;7.490;2023-02-21T09:56:50;13.10;;;7.50;;
9150;SDS011;4610;50.006;7.490;2023-02-21T09:59:19;10.93;;;7.63;;
9150;SDS011;4610;50.006;7.490;2023-02-21T10:01:52;12.47;;;7.40;;
9150;SDS011;4610;50.006;7.490;2023-02-21T10:04:29;13.50;;;7.90;;
9150;SDS011;4610;50.006;7.490;2023-02-21T10:07:08;13.27;;;7.57;;
9150;SDS011;4610;50.006;7.490;2023-02-21T10:09:41;14.13;;;7.87;;
9150;SDS011;4610;50.006;7.490;2023-02-21T10:12:15;12.80;;;7.70;;
9150;SDS011;4610;50.006;7.490;2023-02-21T10:14:57;12.37;;;7.67;;
9150;SDS011;4610;50.006;7.490;2023-02-21T10:17:45;8.73;;;5.53;;
9150;SDS011;4610;50.006;7.490;2023-02-21T10:20:22;12.27;;;7.23;;
9150;SDS011;4610;50.006;7.490;2023-02-21T10:22:55;11.73;;;8.10;;
9150;SDS011;4610;50.006;7.490;2023-02-21T10:25:23;11.53;;;7.47;;
9150;SDS011;4610;50.006;7.490;2023-02-21T10:27:54;11.57;;;7.47;;
9150;SDS011;4610;50.006;7.490;2023-02-21T10:30:26;13.27;;;7.37;;
9150;SDS011;4610;50.006;7.490;2023-02-21T10:32:59;12.10;;;8.10;;
9150;SDS011;4610;50.006;7.490;2023-02-21T10:35:30;11.97;;;7.40;;
9150;SDS011;4610;50.006;7.490;2023-02-21T10:37:57;10.67;;;7.07;;
9150;SDS011;4610;50.006;7.490;2023-02-21T10:40:30;13.00;;;7.13;;
9150;SDS011;4610;50.006;7.490;2023-02-21T10:43:04;12.43;;;6.97;;
9150;SDS011;4610;50.006;7.490;2023-02-21T10:45:35;12.90;;;7.23;;
9150;SDS011;4610;50.006;7.490;2023-02-21T10:48:05;13.97;;;7.60;;
9150;SDS011;4610;50.006;7.490;2023-02-21T10:50:35;10.83;;;6.90;;
9150;SDS011;4610;50.006;7.490;2023-02-21T10:53:03;11.93;;;7.60;;
9150;SDS011;4610;50.006;7.490;2023-02-21T10:55:31;10.60;;;6.93;;
9150;SDS011;4610;50.006;7.490;2023-02-21T10:57:57;12.13;;;7.43;;
9150;SDS011;4610;50.006;7.490;2023-02-21T11:00:33;9.97;;;6.73;;
9150;SDS011;4610;50.006;7.490;2023-02-21T11:03:03;10.93;;;6.87;;
9150;SDS011;4610;50.006;7.490;2023-02-21T11:05:32;11.30;;;6.10;;
9150;SDS011;4610;50.006;7.490;2023-02-21T11:08:04;11.73;;;6.87;;
9150;SDS011;4610;50.006;7.490;2023-02-21T11:10:32;11.47;;;5.33;;
9150;SDS011;4610;50.006;7.490;2023-02-21T11:13:01;8.70;;;5.63;;
9150;SDS011;4610;50.006;7.490;2023-02-21T11:15:31;10.97;;;5.70;;
9150;SDS011;4610;50.006;7.490;2023-02-21T11:18:02;12.73;;;6.27;;
9150;SDS011;4610;50.006;7.490;2023-02-21T11:20:31;6.90;;;4.47;;
9150;SDS011;4610;50.006;7.490;2023-02-21T11:22:57;6.30;;;4.47;;
9150;SDS011;4610;50.006;7.490;2023-02-21T11:25:25;6.27;;;4.03;;
9150;SDS011;4610;50.006;7.490;2023-02-21T11:28:01;6.10;;;4.50;;
9150;SDS011;4610;50.006;7.490;2023-02-21T11:30:32;8.77;;;4.93;;
9150;SDS011;4610;50.006;7.490;2023-02-21T11:33:00;5.33;;;3.73;;
9150;SDS011;4610;50.006;7.490;2023-02-21T11:35:31;7.33;;;4.60;;
9150;SDS011;4610;50.006;7.490;2023-02-21T11:38:01;7.37;;;4.00;;
9150;SDS011;4610;50.006;7.490;2023-02-21T11:40:32;6.87;;;4.60;;
9150;SDS011;4610;50.006;7.490;2023-02-21T11:45:56;4.77;;;3.57;;
9150;SDS011;4610;50.006;7.490;2023-02-21T11:48:42;6.00;;;3.33;;
9150;SDS011;4610;50.006;7.490;2023-02-21T11:51:17;5.57;;;3.30;;
9150;SDS011;4610;50.006;7.490;2023-02-21T11:53:51;6.43;;;3.40;;
9150;SDS011;4610;50.006;7.490;2023-02-21T11:56:23;6.73;;;3.93;;
9150;SDS011;4610;50.006;7.490;2023-02-21T11:58:59;6.73;;;3.67;;
9150;SDS011;4610;50.006;7.490;2023-02-21T12:01:37;5.77;;;3.60;;
9150;SDS011;4610;50.006;7.490;2023-02-21T12:06:59;6.47;;;3.50;;
9150;SDS011;4610;50.006;7.490;2023-02-21T12:09:37;5.07;;;3.47;;
9150;SDS011;4610;50.006;7.490;2023-02-21T12:12:13;6.67;;;3.97;;
9150;SDS011;4610;50.006;7.490;2023-02-21T12:14:51;6.47;;;3.30;;
9150;SDS011;4610;50.006;7.490;2023-02-21T12:17:31;5.43;;;3.40;;
9150;SDS011;4610;50.006;7.490;2023-02-21T12:20:23;5.03;;;3.60;;
9150;SDS011;4610;50.006;7.490;2023-02-21T12:23:00;7.70;;;3.83;;
9150;SDS011;4610;50.006;7.490;2023-02-21T12:25:35;4.97;;;3.47;;
9150;SDS011;4610;50.006;7.490;2023-02-21T12:28:16;6.70;;;3.67;;
9150;SDS011;4610;50.006;7.490;2023-02-21T12:31:00;5.70;;;3.40;;
9150;SDS011;4610;50.006;7.490;2023-02-21T12:33:36;6.00;;;3.40;;
9150;SDS011;4610;50.006;7.490;2023-02-21T12:36:14;4.57;;;3.30;;
9150;SDS011;4610;50.006;7.490;2023-02-21T12:38:52;5.47;;;3.17;;
9150;SDS011;4610;50.006;7.490;2023-02-21T12:41:37;5.00;;;3.27;;
9150;SDS011;4610;50.006;7.490;2023-02-21T12:44:12;5.37;;;3.10;;
9150;SDS011;4610;50.006;7.490;2023-02-21T12:46:44;4.77;;;2.87;;
9150;SDS011;4610;50.006;7.490;2023-02-21T12:49:18;5.27;;;3.20;;
9150;SDS011;4610;50.006;7.490;2023-02-21T12:51:50;5.00;;;3.10;;
9150;SDS011;4610;50.006;7.490;2023-02-21T12:54:23;5.60;;;3.33;;
9150;SDS011;4610;50.006;7.490;2023-02-21T12:57:00;5.40;;;3.47;;
9150;SDS011;4610;50.006;7.490;2023-02-21T12:59:42;7.60;;;3.97;;
9150;SDS011;4610;50.006;7.490;2023-02-21T13:02:22;5.47;;;3.63;;
9150;SDS011;4610;50.006;7.490;2023-02-21T13:04:58;5.37;;;3.70;;
9150;SDS011;4610;50.006;7.490;2023-02-21T13:07:28;6.97;;;3.60;;
9150;SDS011;4610;50.006;7.490;2023-02-21T13:10:02;5.30;;;3.50;;
9150;SDS011;4610;50.006;7.490;2023-02-21T13:12:33;5.73;;;3.80;;
9150;SDS011;4610;50.006;7.490;2023-02-21T13:15:11;6.17;;;3.30;;
9150;SDS011;4610;50.006;7.490;2023-02-21T13:17:41;5.20;;;3.47;;
9150;SDS011;4610;50.006;7.490;2023-02-21T13:20:12;4.97;;;2.97;;
9150;SDS011;4610;50.006;7.490;2023-02-21T13:22:42;3.43;;;2.60;;
9150;SDS011;4610;50.006;7.490;2023-02-21T13:25:45;3.33;;;2.30;;
9150;SDS011;4610;50.006;7.490;2023-02-21T13:28:23;3.27;;;2.50;;
9150;SDS011;4610;50.006;7.490;2023-02-21T13:30:56;3.73;;;2.27;;
9150;SDS011;4610;50.006;7.490;2023-02-21T13:33:26;1.97;;;1.73;;
9150;SDS011;4610;50.006;7.490;2023-02-21T13:35:57;4.10;;;1.80;;
9150;SDS011;4610;50.006;7.490;2023-02-21T13:38:25;1.30;;;1.10;;
9150;SDS011;4610;50.006;7.490;2023-02-21T13:41:02;2.23;;;1.30;;
9150;SDS011;4610;50.006;7.490;2023-02-21T13:43:34;2.43;;;1.13;;
9150;SDS011;4610;50.006;7.490;2023-02-21T13:46:22;1.77;;;1.40;;
9150;SDS011;4610;50.006;7.490;2023-02-21T13:51:52;1.60;;;1.20;;
9150;SDS011;4610;50.006;7.490;2023-02-21T13:54:22;1.40;;;1.10;;
9150;SDS011;4610;50.006;7.490;2023-02-21T13:56:50;1.17;;;1.00;;
9150;SDS011;4610;50.006;7.490;2023-02-21T13:59:29;1.17;;;0.80;;
9150;SDS011;4610;50.006;7.490;2023-02-21T14:02:14;1.20;;;0.93;;
9150;SDS011;4610;50.006;7.490;2023-02-21T14:07:39;0.70;;;0.70;;
9150;SDS011;4610;50.006;7.490;2023-02-21T14:13:05;1.03;;;0.77;;
9150;SDS011;4610;50.006;7.490;2023-02-21T14:15:47;0.60;;;0.50;;
9150;SDS011;4610;50.006;7.490;2023-02-21T14:18:18;0.80;;;0.70;;
9150;SDS011;4610;50.006;7.490;2023-02-21T14:20:48;1.20;;;0.60;;
9150;SDS011;4610;50.006;7.490;2023-02-21T14:23:19;1.07;;;0.73;;
9150;SDS011;4610;50.006;7.490;2023-02-21T14:25:56;0.87;;;0.80;;
9150;SDS011;4610;50.006;7.490;2023-02-21T14:31:44;0.80;;;0.60;;
9150;SDS011;4610;50.006;7.490;2023-02-21T14:34:13;0.70;;;0.70;;
9150;SDS011;4610;50.006;7.490;2023-02-21T14:36:45;0.90;;;0.60;;
9150;SDS011;4610;50.006;7.490;2023-02-21T14:39:16;0.97;;;0.70;;
9150;SDS011;4610;50.006;7.490;2023-02-21T14:41:49;1.03;;;0.80;;
9150;SDS011;4610;50.006;7.490;2023-02-21T14:44:29;1.00;;;0.90;;
9150;SDS011;4610;50.006;7.490;2023-02-21T14:47:25;1.20;;;0.80;;
9150;SDS011;4610;50.006;7.490;2023-02-21T14:56:01;1.30;;;0.70;;
9150;SDS011;4610;50.006;7.490;2023-02-21T15:02:02;0.93;;;0.80;;
9150;SDS011;4610;50.006;7.490;2023-02-21T15:04:40;0.60;;;0.60;;
9150;SDS011;4610;50.006;7.490;2023-02-21T15:07:17;2.60;;;1.27;;
9150;SDS011;4610;50.006;7.490;2023-02-21T15:12:32;1.53;;;0.80;;
9150;SDS011;4610;50.006;7.490;2023-02-21T15:15:04;1.37;;;0.80;;
9150;SDS011;4610;50.006;7.490;2023-02-21T15:17:39;0.77;;;0.73;;
9150;SDS011;4610;50.006;7.490;2023-02-21T15:20:12;0.80;;;0.80;;
9150;SDS011;4610;50.006;7.490;2023-02-21T15:22:40;0.90;;;0.90;;
9150;SDS011;4610;50.006;7.490;2023-02-21T15:25:11;0.90;;;0.90;;
9150;SDS011;4610;50.006;7.490;2023-02-21T15:28:05;0.83;;;0.77;;
9150;SDS011;4610;50.006;7.490;2023-02-21T15:30:40;1.07;;;0.90;;
9150;SDS011;4610;50.006;7.490;2023-02-21T15:33:11;1.07;;;0.80;;
9150;SDS011;4610;50.006;7.490;2023-02-21T15:35:42;1.00;;;0.90;;
9150;SDS011;4610;50.006;7.490;2023-02-21T15:38:15;1.07;;;0.90;;
9150;SDS011;4610;50.006;7.490;2023-02-21T15:40:45;1.20;;;0.90;;
9150;SDS011;4610;50.006;7.490;2023-02-21T15:43:20;1.33;;;1.23;;
9150;SDS011;4610;50.006;7.490;2023-02-21T15:45:52;1.13;;;1.00;;
9150;SDS011;4610;50.006;7.490;2023-02-21T15:48:22;1.17;;;0.83;;
9150;SDS011;4610;50.006;7.490;2023-02-21T15:50:49;1.00;;;0.90;;
9150;SDS011;4610;50.006;7.490;2023-02-21T15:53:17;0.97;;;0.90;;
9150;SDS011;4610;50.006;7.490;2023-02-21T15:55:45;1.40;;;1.10;;
9150;SDS011;4610;50.006;7.490;2023-02-21T15:58:15;1.40;;;1.00;;
9150;SDS011;4610;50.006;7.490;2023-02-21T16:00:46;1.00;;;0.80;;
9150;SDS011;4610;50.006;7.490;2023-02-21T16:03:26;1.40;;;0.90;;
9150;SDS011;4610;50.006;7.490;2023-02-21T16:06:06;1.10;;;1.00;;
9150;SDS011;4610;50.006;7.490;2023-02-21T16:08:35;1.20;;;0.90;;
9150;SDS011;4610;50.006;7.490;2023-02-21T16:11:04;1.00;;;0.90;;